Time;durP1;ratioP1;P1;durP2;ratioP2;P2;SDS_P1;SDS_P2;PMS_P1;PMS_P2;Temp;Humidity;BMP_temperature;BMP_pressure;BME280_temperature;BME280_humidity;BME280_pressure;Samples;Min_cycle;Max_cycle;Signal;HPM_P1;HPM_P2
2024/02/20 00:00:23;;;;;;;;;;;;;;;19.52;50.94;101494.81;2069081;28;6347;-69
2024/02/20 00:01:24;;;;;;;;;;;;;;;19.52;50.84;101494.06;2069686;28;2208;-69
2024/02/20 00:02:26;;;;;;;;;;;;;;;19.51;50.88;101493.31;2067671;28;2304;-69
2024/02/20 00:03:27;;;;;;;;;;;;;;;19.52;50.88;101488.34;2068860;28;2214;-70
2024/02/20 00:04:29;;;;;;;;;;;;;;;19.51;50.78;101487.56;2067834;28;2207;-70
2024/02/20 00:05:30;;;;;;;;;;;;;;;19.50;50.90;101486.09;2069075;28;2251;-69
2024/02/20 00:06:32;;;;;;;;;;;;;;;19.50;50.91;101494.69;2075713;28;2273;-69
2024/02/20 00:07:34;;;;;;;;;;;;;;;19.49;50.96;101501.81;2075607;28;2205;-69
2024/02/20 00:08:35;;;;;;;;;;;;;;;19.50;50.88;101491.09;2068615;28;2342;-69
2024/02/20 00:09:37;;;;;;;;;;;;;;;19.50;50.91;101497.56;2070410;28;2301;-69
2024/02/20 00:10:38;;;;;;;;;;;;;;;19.50;50.80;101493.94;2066994;28;2262;-69
2024/02/20 00:11:40;;;;;;;;;;;;;;;19.49;50.81;101496.06;2069335;28;2216;-69
2024/02/20 00:12:42;;;;;;;;;;;;;;;19.49;50.72;101496.06;2067834;28;2238;-69
2024/02/20 00:13:44;;;;;;;;;;;;;;;19.47;50.77;101493.09;2069678;28;2200;-69
2024/02/20 00:14:45;;;;;;;;;;;;;;;19.49;50.82;101489.56;2070598;28;2242;-69
2024/02/20 00:15:46;;;;;;;;;;;;;;;19.49;50.75;101492.44;2068871;28;2238;-70
2024/02/20 00:16:49;;;;;;;;;;;;;;;19.48;50.71;101491.69;2069544;28;2232;-71
2024/02/20 00:17:50;;;;;;;;;;;;;;;19.48;50.82;101485.22;2064955;28;2489;-69
2024/02/20 00:18:52;;;;;;;;;;;;;;;19.47;50.77;101487.34;2067156;28;2242;-69
2024/02/20 00:19:53;;;;;;;;;;;;;;;19.46;50.93;101491.56;2069866;28;2240;-71
2024/02/20 00:20:55;;;;;;;;;;;;;;;19.43;50.90;101498.59;2068022;28;2258;-69
2024/02/20 00:21:56;;;;;;;;;;;;;;;19.44;50.98;101497.19;2069866;28;2354;-69
2024/02/20 00:22:58;;;;;;;;;;;;;;;19.49;50.71;101490.31;2068217;28;2295;-69
2024/02/20 00:23:59;;;;;;;;;;;;;;;19.49;50.69;101496.06;2067471;28;2560;-68
2024/02/20 00:25:00;;;;;;;;;;;;;;;19.50;50.79;101496.81;2068139;28;2295;-69
2024/02/20 00:26:03;;;;;;;;;;;;;;;19.49;50.62;101496.06;2070777;28;2283;-70
2024/02/20 00:27:05;;;;;;;;;;;;;;;19.50;50.83;101494.69;2071643;28;2243;-69
2024/02/20 00:28:06;;;;;;;;;;;;;;;19.49;50.65;101496.06;2070268;28;2467;-69
2024/02/20 00:29:08;;;;;;;;;;;;;;;19.50;50.80;101502.56;2070240;28;2616;-69
2024/02/20 00:30:10;;;;;;;;;;;;;;;19.49;50.65;101492.44;2070185;28;6206;-69
2024/02/20 00:31:11;;;;;;;;;;;;;;;19.50;50.79;101493.94;2068903;28;2211;-69
2024/02/20 00:32:13;;;;;;;;;;;;;;;19.49;50.70;101496.06;2071366;28;2270;-69
2024/02/20 00:33:14;;;;;;;;;;;;;;;19.49;50.58;101498.94;2071450;28;2228;-69
2024/02/20 00:34:16;;;;;;;;;;;;;;;19.48;50.71;101494.56;2069907;28;2287;-69
2024/02/20 00:35:17;;;;;;;;;;;;;;;19.48;50.59;101500.31;2071315;28;2302;-69
2024/02/20 00:36:19;;;;;;;;;;;;;;;19.47;50.67;101501.72;2069816;28;2413;-69
2024/02/20 00:37:20;;;;;;;;;;;;;;;19.47;50.67;101498.84;2069305;28;2214;-69
2024/02/20 00:38:22;;;;;;;;;;;;;;;19.47;50.71;101498.84;2071095;28;2227;-69
2024/02/20 00:39:24;;;;;;;;;;;;;;;19.47;50.66;101498.84;2070165;28;2536;-70
2024/02/20 00:40:26;;;;;;;;;;;;;;;19.47;50.68;101493.09;2068491;28;2255;-69
2024/02/20 00:41:27;;;;;;;;;;;;;;;19.47;50.57;101498.84;2069093;28;2437;-69
2024/02/20 00:42:28;;;;;;;;;;;;;;;19.46;50.74;101500.94;2068543;28;2576;-70
2024/02/20 00:43:30;;;;;;;;;;;;;;;19.46;50.72;101491.56;2071551;28;2254;-69
2024/02/20 00:44:31;;;;;;;;;;;;;;;19.46;50.57;101497.31;2067833;28;2399;-69
2024/02/20 00:45:33;;;;;;;;;;;;;;;19.45;50.63;101504.44;2069479;28;2140;-69
2024/02/20 00:46:34;;;;;;;;;;;;;;;19.45;50.68;101513.06;2070403;28;2341;-70
2024/02/20 00:47:36;;;;;;;;;;;;;;;19.45;50.76;101496.56;2071332;28;2263;-69
2024/02/20 00:48:37;;;;;;;;;;;;;;;19.45;50.69;101501.59;2070752;28;2221;-69
2024/02/20 00:49:38;;;;;;;;;;;;;;;19.45;50.80;101495.84;2068950;28;2283;-69
2024/02/20 00:50:41;;;;;;;;;;;;;;;19.44;50.75;101497.19;2069276;28;2184;-69
2024/02/20 00:51:44;;;;;;;;;;;;;;;19.44;50.66;101500.81;2071097;28;2305;-70
2024/02/20 00:52:45;;;;;;;;;;;;;;;19.44;50.66;101500.06;2069653;28;2615;-69
2024/02/20 00:53:46;;;;;;;;;;;;;;;19.43;50.67;101505.06;2070043;28;2263;-69
2024/02/20 00:54:48;;;;;;;;;;;;;;;19.44;50.72;101500.06;2068020;28;2570;-69
2024/02/20 00:55:50;;;;;;;;;;;;;;;19.43;50.71;101505.06;2069372;28;2322;-69
2024/02/20 00:56:51;;;;;;;;;;;;;;;19.43;50.74;101504.31;2070028;28;2294;-69
2024/02/20 00:57:57;;;;;;;;;;;;;;;19.43;50.66;101501.47;2070591;28;2168;-69
2024/02/20 00:58:59;;;;;;;;;;;;;;;19.43;50.86;101501.47;2068528;28;2442;-69
2024/02/20 01:00:00;;;;;;;;;;;;;;;19.43;50.62;101504.31;2069820;28;2258;-70
2024/02/20 01:01:02;;;;;;;;;;;;;;;19.42;50.61;101503.59;2070066;28;6005;-69
2024/02/20 01:02:04;;;;;;;;;;;;;;;19.43;50.57;101504.31;2070385;28;2163;-69
2024/02/20 01:03:05;;;;;;;;;;;;;;;19.41;50.71;101499.19;2070712;28;2303;-69
2024/02/20 01:04:06;;;;;;;;;;;;;;;19.42;50.74;101502.81;2069388;28;2283;-70
2024/02/20 01:05:09;;;;;;;;;;;;;;;19.41;50.71;101501.31;2068309;28;2437;-69
2024/02/20 01:06:11;;;;;;;;;;;;;;;19.40;50.69;101494.06;2071186;28;2159;-69
2024/02/20 01:07:13;;;;;;;;;;;;;;;19.41;50.75;101495.59;2069044;28;2204;-69
2024/02/20 01:08:14;;;;;;;;;;;;;;;19.41;50.77;101495.59;2067314;28;2221;-70
2024/02/20 01:09:15;;;;;;;;;;;;;;;19.41;50.76;101502.06;2068644;28;2329;-69
2024/02/20 01:10:17;;;;;;;;;;;;;;;19.40;50.72;101503.47;2068679;28;2359;-69
2024/02/20 01:11:18;;;;;;;;;;;;;;;19.41;50.74;101504.19;2069705;28;2188;-69
2024/02/20 01:12:22;;;;;;;;;;;;;;;19.41;50.72;101489.84;2068257;28;2593;-70
2024/02/20 01:13:23;;;;;;;;;;;;;;;19.40;50.69;101499.81;2069967;28;2363;-69
2024/02/20 01:14:25;;;;;;;;;;;;;;;19.40;50.51;101494.06;2069408;28;2243;-69
2024/02/20 01:15:26;;;;;;;;;;;;;;;19.39;50.79;101496.19;2069631;28;2224;-69
2024/02/20 01:16:28;;;;;;;;;;;;;;;19.39;50.70;101492.59;2068927;28;2354;-69
2024/02/20 01:17:29;;;;;;;;;;;;;;;19.40;50.73;101499.81;2069525;28;2455;-70
2024/02/20 01:18:31;;;;;;;;;;;;;;;19.40;50.68;101491.19;2069385;28;2294;-70
2024/02/20 01:19:32;;;;;;;;;;;;;;;19.39;50.67;101499.06;2067278;28;2208;-69
2024/02/20 01:20:34;;;;;;;;;;;;;;;19.39;50.70;101493.34;2070053;28;2161;-69
2024/02/20 01:21:35;;;;;;;;;;;;;;;19.39;50.80;101489.72;2069141;28;2209;-69
2024/02/20 01:22:37;;;;;;;;;;;;;;;19.39;50.65;101492.59;2069852;28;2321;-69
2024/02/20 01:23:38;;;;;;;;;;;;;;;19.39;50.73;101492.59;2069603;28;2268;-69
2024/02/20 01:24:40;;;;;;;;;;;;;;;19.38;50.72;101497.59;2070496;28;2560;-68
2024/02/20 01:25:42;;;;;;;;;;;;;;;19.38;50.73;101496.84;2070475;28;2271;-69
2024/02/20 01:26:43;;;;;;;;;;;;;;;19.37;50.58;101496.06;2068315;28;2444;-69
2024/02/20 01:27:45;;;;;;;;;;;;;;;19.36;50.71;101494.59;2071795;28;2268;-70
2024/02/20 01:28:47;;;;;;;;;;;;;;;19.37;50.64;101498.94;2069222;28;2271;-69
2024/02/20 01:29:48;;;;;;;;;;;;;;;19.36;50.69;101491.72;2070043;28;2197;-69
2024/02/20 01:30:51;;;;;;;;;;;;;;;19.37;50.68;101501.06;2069717;28;6358;-69
2024/02/20 01:31:53;;;;;;;;;;;;;;;19.37;50.68;101498.22;2069628;28;2657;-69
2024/02/20 01:32:57;;;;;;;;;;;;;;;19.35;50.60;101492.34;2068412;28;2391;-69
2024/02/20 01:33:59;;;;;;;;;;;;;;;19.36;50.62;101493.84;2067276;28;2362;-69
2024/02/20 01:35:00;;;;;;;;;;;;;;;19.36;50.62;101493.84;2070397;28;2643;-69
2024/02/20 01:36:02;;;;;;;;;;;;;;;19.36;50.67;101499.59;2069246;28;2294;-69
2024/02/20 01:37:05;;;;;;;;;;;;;;;19.36;50.62;101485.97;2069390;28;2254;-69
2024/02/20 01:38:07;;;;;;;;;;;;;;;19.36;50.69;101493.84;2070411;28;2282;-69
2024/02/20 01:39:08;;;;;;;;;;;;;;;19.36;50.66;101493.84;2069184;28;2355;-70
2024/02/20 01:40:09;;;;;;;;;;;;;;;19.36;50.62;101499.59;2068475;28;2299;-69
2024/02/20 01:41:11;;;;;;;;;;;;;;;19.36;50.51;101485.22;2070113;28;2248;-69
2024/02/20 01:42:12;;;;;;;;;;;;;;;19.35;50.68;101498.06;2070565;28;2566;-69
2024/02/20 01:43:14;;;;;;;;;;;;;;;19.35;50.70;101498.06;2068798;28;2316;-68
2024/02/20 01:44:16;;;;;;;;;;;;;;;19.35;50.69;101492.34;2068862;28;2328;-69
2024/02/20 01:45:17;;;;;;;;;;;;;;;19.35;50.65;101490.22;2070806;28;2199;-68
2024/02/20 01:46:22;;;;;;;;;;;;;;;19.35;50.67;101498.06;2066552;28;2312;-68
2024/02/20 01:47:24;;;;;;;;;;;;;;;19.35;50.58;101495.94;2069507;28;2248;-68
2024/02/20 01:48:26;;;;;;;;;;;;;;;19.35;50.71;101492.34;2068510;28;2359;-68
2024/02/20 01:49:28;;;;;;;;;;;;;;;19.34;50.56;101485.84;2068731;28;2331;-68
2024/02/20 01:50:33;;;;;;;;;;;;;;;19.35;50.63;101495.22;2068368;28;2196;-68
2024/02/20 01:51:35;;;;;;;;;;;;;;;19.34;50.67;101490.84;2069478;28;2235;-68
2024/02/20 01:52:37;;;;;;;;;;;;;;;19.34;50.70;101490.84;2070680;28;2197;-68
2024/02/20 01:53:38;;;;;;;;;;;;;;;19.34;50.50;101490.84;2068666;28;2219;-68
2024/02/20 01:54:40;;;;;;;;;;;;;;;19.33;50.62;101495.81;2069516;28;2184;-68
2024/02/20 01:55:41;;;;;;;;;;;;;;;19.33;50.61;101486.47;2069902;28;2239;-68
2024/02/20 01:56:43;;;;;;;;;;;;;;;19.33;50.58;101487.22;2069491;28;2291;-68
2024/02/20 01:57:45;;;;;;;;;;;;;;;19.33;50.49;101495.81;2068089;28;2267;-68
2024/02/20 01:58:47;;;;;;;;;;;;;;;19.33;50.61;101484.34;2070461;28;2338;-68
2024/02/20 01:59:49;;;;;;;;;;;;;;;19.33;50.49;101486.47;2068798;28;2227;-68
2024/02/20 02:00:50;;;;;;;;;;;;;;;19.33;50.63;101484.34;2069161;28;6288;-69
2024/02/20 02:01:52;;;;;;;;;;;;;;;19.32;50.52;101485.72;2071244;28;2232;-69
2024/02/20 02:02:53;;;;;;;;;;;;;;;19.32;50.52;101485.72;2068202;28;2584;-69
2024/02/20 02:03:55;;;;;;;;;;;;;;;19.31;50.63;101474.84;2069767;28;2563;-68
2024/02/20 02:04:57;;;;;;;;;;;;;;;19.32;50.65;101490.72;2067429;28;2271;-68
2024/02/20 02:05:58;;;;;;;;;;;;;;;19.32;50.59;101493.59;2069845;28;2329;-68
2024/02/20 02:07:00;;;;;;;;;;;;;;;19.33;50.49;101489.34;2070242;28;2256;-69
2024/02/20 02:08:02;;;;;;;;;;;;;;;19.32;50.53;101499.34;2070220;28;2230;-68
2024/02/20 02:09:04;;;;;;;;;;;;;;;19.32;50.56;101487.84;2067741;28;2334;-68
2024/02/20 02:10:05;;;;;;;;;;;;;;;19.32;50.58;101487.84;2069860;28;2192;-68
2024/02/20 02:11:07;;;;;;;;;;;;;;;19.31;50.47;101487.13;2067601;28;2199;-68
2024/02/20 02:12:08;;;;;;;;;;;;;;;19.31;50.59;101483.47;2068965;28;2378;-68
2024/02/20 02:13:09;;;;;;;;;;;;;;;19.32;50.47;101487.84;2070803;28;2313;-68
2024/02/20 02:14:11;;;;;;;;;;;;;;;19.31;50.53;101492.09;2069137;28;2330;-68
2024/02/20 02:15:12;;;;;;;;;;;;;;;19.31;50.56;101486.34;2069551;28;2285;-69
2024/02/20 02:16:14;;;;;;;;;;;;;;;19.31;50.52;101489.22;2070342;28;2222;-68
2024/02/20 02:17:15;;;;;;;;;;;;;;;19.31;50.48;101486.34;2069626;28;2623;-68
2024/02/20 02:18:17;;;;;;;;;;;;;;;19.31;50.51;101486.34;2069844;28;2198;-68
2024/02/20 02:19:18;;;;;;;;;;;;;;;19.31;50.63;101489.22;2071374;28;2553;-68
2024/02/20 02:20:20;;;;;;;;;;;;;;;19.30;50.53;101485.59;2070655;28;2625;-68
2024/02/20 02:21:21;;;;;;;;;;;;;;;19.30;50.38;101490.59;2069316;28;2215;-68
2024/02/20 02:22:23;;;;;;;;;;;;;;;19.30;50.52;101476.25;2070027;28;2191;-68
2024/02/20 02:23:24;;;;;;;;;;;;;;;19.30;50.52;101484.84;2065768;28;2390;-68
2024/02/20 02:24:26;;;;;;;;;;;;;;;19.30;50.53;101487.72;2067967;28;2216;-68
2024/02/20 02:25:27;;;;;;;;;;;;;;;19.29;50.49;101481.25;2066175;28;2184;-69
2024/02/20 02:26:29;;;;;;;;;;;;;;;19.29;50.54;101489.09;2059880;28;2316;-68
2024/02/20 02:27:30;;;;;;;;;;;;;;;19.30;50.46;101487.72;2054758;28;2229;-68
2024/02/20 02:28:32;;;;;;;;;;;;;;;19.28;50.43;101482.59;2067551;28;2366;-68
2024/02/20 02:29:33;;;;;;;;;;;;;;;19.29;50.53;101483.34;2068945;28;2195;-68
2024/02/20 02:30:35;;;;;;;;;;;;;;;19.27;50.60;101483.25;2060611;28;6129;-68
2024/02/20 02:31:37;;;;;;;;;;;;;;;19.27;50.41;101491.84;2064342;28;2161;-68
2024/02/20 02:32:39;;;;;;;;;;;;;;;19.28;50.46;101493.34;2068028;28;2394;-68
2024/02/20 02:33:41;;;;;;;;;;;;;;;19.28;50.50;101487.59;2068313;28;2195;-68
2024/02/20 02:34:42;;;;;;;;;;;;;;;19.28;50.46;101494.09;2070179;28;2196;-68
2024/02/20 02:35:44;;;;;;;;;;;;;;;19.27;50.44;101492.59;2069343;28;2203;-68
2024/02/20 02:36:45;;;;;;;;;;;;;;;19.28;50.52;101493.34;2068576;28;2306;-68
2024/02/20 02:37:47;;;;;;;;;;;;;;;19.28;50.43;101490.47;2068837;28;2251;-68
2024/02/20 02:38:48;;;;;;;;;;;;;;;19.27;50.44;101492.59;2069653;28;2215;-68
2024/02/20 02:39:50;;;;;;;;;;;;;;;19.27;50.54;101498.34;2069294;28;2298;-68
2024/02/20 02:40:51;;;;;;;;;;;;;;;19.28;50.50;101499.09;2067050;28;2219;-69
2024/02/20 02:41:53;;;;;;;;;;;;;;;19.27;50.37;101492.59;2067940;28;2230;-68
2024/02/20 02:42:54;;;;;;;;;;;;;;;19.26;50.37;101491.09;2068898;28;2222;-68
2024/02/20 02:43:55;;;;;;;;;;;;;;;19.27;50.46;101497.59;2068971;28;2327;-68
2024/02/20 02:44:57;;;;;;;;;;;;;;;19.27;50.42;101497.59;2068360;28;2274;-68
2024/02/20 02:45:58;;;;;;;;;;;;;;;19.27;50.36;101497.59;2068725;28;2262;-68
2024/02/20 02:47:00;;;;;;;;;;;;;;;19.25;50.45;101496.09;2067635;28;2298;-67
2024/02/20 02:48:03;;;;;;;;;;;;;;;19.27;50.45;101491.84;2068303;28;2227;-70
2024/02/20 02:49:06;;;;;;;;;;;;;;;19.27;50.45;101494.72;2067326;28;2247;-70
2024/02/20 02:50:08;;;;;;;;;;;;;;;19.25;50.42;101490.34;2068686;28;2131;-70
2024/02/20 02:51:09;;;;;;;;;;;;;;;19.25;50.41;101490.34;2067862;28;2282;-70
2024/02/20 02:52:10;;;;;;;;;;;;;;;19.24;50.38;101500.34;2066452;28;2283;-70
2024/02/20 02:53:12;;;;;;;;;;;;;;;19.24;50.44;101500.34;2069092;28;2230;-70
2024/02/20 02:54:13;;;;;;;;;;;;;;;19.25;50.39;101498.97;2069256;28;2358;-70
2024/02/20 02:55:15;;;;;;;;;;;;;;;19.23;50.28;101493.09;2059532;28;2259;-70
2024/02/20 02:56:16;;;;;;;;;;;;;;;19.23;50.45;101495.97;2065840;28;2220;-69
2024/02/20 02:57:17;;;;;;;;;;;;;;;19.24;50.38;101497.47;2068357;28;2255;-70
2024/02/20 02:58:19;;;;;;;;;;;;;;;19.25;50.47;101498.97;2069877;28;2196;-70
2024/02/20 02:59:20;;;;;;;;;;;;;;;19.25;50.36;101501.84;2069536;28;2223;-70
2024/02/20 03:00:22;;;;;;;;;;;;;;;19.24;50.41;101500.34;2069004;28;6391;-70
2024/02/20 03:01:23;;;;;;;;;;;;;;;19.24;50.38;101497.47;2068783;28;2263;-70
2024/02/20 03:02:24;;;;;;;;;;;;;;;19.23;50.29;101501.69;2069587;28;2262;-70
2024/02/20 03:03:26;;;;;;;;;;;;;;;19.24;50.39;101499.56;2064511;28;2281;-70
2024/02/20 03:04:29;;;;;;;;;;;;;;;19.23;50.32;101498.84;2058700;28;2502;-70
2024/02/20 03:05:31;;;;;;;;;;;;;;;19.23;50.31;101507.44;2068472;28;2290;-70
2024/02/20 03:06:37;;;;;;;;;;;;;;;19.23;50.33;101510.31;2066836;28;2156;-70
2024/02/20 03:07:39;;;;;;;;;;;;;;;19.22;50.38;101500.22;2067281;28;2231;-69
2024/02/20 03:08:47;;;;;;;;;;;;;;;19.23;50.37;101498.09;2067478;28;2391;-69
2024/02/20 03:09:48;;;;;;;;;;;;;;;19.23;50.29;101500.97;2068994;28;2235;-69
2024/02/20 03:10:50;;;;;;;;;;;;;;;19.20;50.39;101500.09;2070063;28;2281;-69
2024/02/20 03:11:51;;;;;;;;;;;;;;;19.23;50.20;101512.44;2070420;28;2338;-70
2024/02/20 03:12:55;;;;;;;;;;;;;;;19.23;50.36;101515.31;2066873;28;2255;-70
2024/02/20 03:13:57;;;;;;;;;;;;;;;19.21;50.36;101500.84;2069133;28;2263;-70
2024/02/20 03:14:59;;;;;;;;;;;;;;;19.21;50.34;101501.56;2067376;28;2346;-69
2024/02/20 03:16:01;;;;;;;;;;;;;;;19.21;50.25;101507.31;2066465;28;2252;-70
2024/02/20 03:17:02;;;;;;;;;;;;;;;19.21;50.22;101506.56;2067821;28;2286;-70
2024/02/20 03:18:06;;;;;;;;;;;;;;;19.21;50.31;101507.31;2069033;28;2560;-70
2024/02/20 03:19:08;;;;;;;;;;;;;;;19.20;50.33;101513.69;2068846;28;2255;-70
2024/02/20 03:20:14;;;;;;;;;;;;;;;19.20;50.38;101511.56;2070051;28;2294;-69
2024/02/20 03:21:16;;;;;;;;;;;;;;;19.20;50.32;101507.97;2068541;28;2231;-70
2024/02/20 03:22:18;;;;;;;;;;;;;;;19.19;50.30;101504.31;2068434;28;2250;-70
2024/02/20 03:23:20;;;;;;;;;;;;;;;19.19;50.31;101510.06;2068587;28;2295;-70
2024/02/20 03:24:21;;;;;;;;;;;;;;;19.18;50.26;101508.56;2069755;28;2533;-70
2024/02/20 03:25:23;;;;;;;;;;;;;;;19.18;50.30;101508.56;2069331;28;2239;-70
2024/02/20 03:26:26;;;;;;;;;;;;;;;19.20;50.19;101517.31;2066641;28;2322;-70
2024/02/20 03:27:28;;;;;;;;;;;;;;;19.19;50.24;101510.06;2068178;28;2297;-70
2024/02/20 03:28:32;;;;;;;;;;;;;;;19.20;50.29;101517.31;2069764;28;2306;-69
2024/02/20 03:29:33;;;;;;;;;;;;;;;19.19;50.28;101518.69;2066097;28;2276;-70
2024/02/20 03:30:34;;;;;;;;;;;;;;;19.19;50.27;101521.56;2068592;28;6028;-70
2024/02/20 03:31:36;;;;;;;;;;;;;;;19.19;50.21;101512.94;2068671;28;2278;-70
2024/02/20 03:32:37;;;;;;;;;;;;;;;19.18;50.33;101514.31;2067452;28;2234;-70
2024/02/20 03:33:39;;;;;;;;;;;;;;;19.19;50.31;101517.94;2067942;28;2691;-69
2024/02/20 03:34:41;;;;;;;;;;;;;;;19.18;50.27;101514.31;2069521;28;2215;-70
2024/02/20 03:35:42;;;;;;;;;;;;;;;19.18;50.27;101520.06;2068702;28;2200;-70
2024/02/20 03:36:44;;;;;;;;;;;;;;;19.18;50.27;101514.31;2069261;28;2243;-70
2024/02/20 03:37:47;;;;;;;;;;;;;;;19.18;50.21;101517.19;2069907;28;2301;-70
2024/02/20 03:38:49;;;;;;;;;;;;;;;19.17;50.26;101521.44;2068033;28;2300;-69
2024/02/20 03:39:51;;;;;;;;;;;;;;;19.18;49.96;101520.06;2068625;28;2345;-70
2024/02/20 03:40:53;;;;;;;;;;;;;;;19.18;50.25;101525.81;2066189;28;2243;-70
2024/02/20 03:41:54;;;;;;;;;;;;;;;19.18;50.13;101520.06;2069564;28;2231;-70
2024/02/20 03:42:56;;;;;;;;;;;;;;;19.19;50.16;101521.56;2068623;28;2239;-69
2024/02/20 03:43:58;;;;;;;;;;;;;;;19.20;50.12;101528.81;2067200;28;2439;-70
2024/02/20 03:45:00;;;;;;;;;;;;;;;19.20;50.10;101520.19;2068255;28;2330;-70
2024/02/20 03:46:03;;;;;;;;;;;;;;;19.21;50.13;101521.69;2068873;28;2541;-70
2024/02/20 03:47:05;;;;;;;;;;;;;;;19.20;50.19;101523.06;2067778;28;2275;-69
2024/02/20 03:48:07;;;;;;;;;;;;;;;19.21;50.10;101523.81;2069401;28;2338;-70
2024/02/20 03:49:09;;;;;;;;;;;;;;;19.22;50.10;101526.06;2067195;28;2284;-70
2024/02/20 03:50:11;;;;;;;;;;;;;;;19.21;50.10;101524.56;2066468;28;2179;-70
2024/02/20 03:51:12;;;;;;;;;;;;;;;19.22;50.12;101526.06;2069106;28;2203;-69
2024/02/20 03:52:13;;;;;;;;;;;;;;;19.22;50.02;101525.31;2066377;28;2345;-69
2024/02/20 03:53:15;;;;;;;;;;;;;;;19.23;50.09;101527.53;2068805;28;2239;-70
2024/02/20 03:54:16;;;;;;;;;;;;;;;19.23;50.03;101533.28;2069099;28;2381;-70
2024/02/20 03:55:18;;;;;;;;;;;;;;;19.24;50.02;101534.03;2065201;28;2292;-70
2024/02/20 03:56:19;;;;;;;;;;;;;;;19.24;50.09;101534.81;2068822;28;2418;-70
2024/02/20 03:57:20;;;;;;;;;;;;;;;19.25;50.02;101536.28;2069580;28;2280;-70
2024/02/20 03:58:22;;;;;;;;;;;;;;;19.27;50.00;101544.28;2070914;28;2262;-70
2024/02/20 03:59:23;;;;;;;;;;;;;;;19.27;50.08;101537.81;2067727;28;2445;-70
2024/02/20 04:00:25;;;;;;;;;;;;;;;19.28;50.09;101542.16;2070223;28;6338;-69
2024/02/20 04:01:26;;;;;;;;;;;;;;;19.29;50.22;101540.78;2070323;28;2299;-70
2024/02/20 04:02:27;;;;;;;;;;;;;;;19.29;50.21;101535.81;2070035;28;2179;-70
2024/02/20 04:03:29;;;;;;;;;;;;;;;19.30;50.26;101536.53;2069974;28;2232;-70
2024/02/20 04:04:30;;;;;;;;;;;;;;;19.30;50.28;101531.53;2069607;28;2316;-69
2024/02/20 04:05:33;;;;;;;;;;;;;;;19.31;50.28;101532.28;2071181;28;2271;-70
2024/02/20 04:06:34;;;;;;;;;;;;;;;19.31;50.24;101538.81;2071778;28;2254;-70
2024/02/20 04:07:36;;;;;;;;;;;;;;;19.31;50.35;101538.03;2069277;28;2235;-70
2024/02/20 04:08:38;;;;;;;;;;;;;;;19.32;50.25;101543.16;2072047;28;2572;-69
2024/02/20 04:09:39;;;;;;;;;;;;;;;19.34;50.25;101542.53;2071052;28;2241;-70
2024/02/20 04:10:41;;;;;;;;;;;;;;;19.33;50.33;101535.28;2068377;28;2263;-70
2024/02/20 04:11:42;;;;;;;;;;;;;;;19.32;50.26;101539.53;2071192;28;2173;-70
2024/02/20 04:12:44;;;;;;;;;;;;;;;19.33;50.33;101546.78;2069742;28;2286;-70
2024/02/20 04:13:45;;;;;;;;;;;;;;;19.34;50.35;101542.53;2069624;28;2240;-70
2024/02/20 04:14:46;;;;;;;;;;;;;;;19.33;50.39;101541.78;2070357;28;2240;-70
2024/02/20 04:15:50;;;;;;;;;;;;;;;19.32;50.37;101546.03;2068060;28;2264;-70
2024/02/20 04:16:51;;;;;;;;;;;;;;;19.33;50.43;101546.78;2068969;28;2148;-70
2024/02/20 04:17:53;;;;;;;;;;;;;;;19.33;50.43;101552.53;2068613;28;2264;-71
2024/02/20 04:18:54;;;;;;;;;;;;;;;19.33;50.46;101547.50;2068379;28;2558;-70
2024/02/20 04:19:56;;;;;;;;;;;;;;;19.33;50.38;101550.38;2070934;28;2487;-70
2024/02/20 04:20:57;;;;;;;;;;;;;;;19.33;50.43;101546.78;2067872;28;2248;-70
2024/02/20 04:21:59;;;;;;;;;;;;;;;19.33;50.45;101549.66;2069831;28;2256;-69
2024/02/20 04:23:06;;;;;;;;;;;;;;;19.33;50.36;101552.53;2069566;28;2211;-70
2024/02/20 04:24:08;;;;;;;;;;;;;;;19.34;50.43;101554.03;2069186;28;2226;-70
2024/02/20 04:25:09;;;;;;;;;;;;;;;19.33;50.50;101556.13;2070018;28;2215;-70
2024/02/20 04:26:10;;;;;;;;;;;;;;;19.33;50.52;101559.00;2066933;28;2311;-70
2024/02/20 04:27:12;;;;;;;;;;;;;;;19.33;50.53;101553.25;2068620;28;2267;-70
2024/02/20 04:28:14;;;;;;;;;;;;;;;19.33;50.40;101559.00;2070186;28;2244;-70
2024/02/20 04:29:16;;;;;;;;;;;;;;;19.34;50.43;101565.53;2068234;28;2283;-70
2024/02/20 04:30:17;;;;;;;;;;;;;;;19.34;50.50;101559.78;2068105;28;6209;-69
2024/02/20 04:31:18;;;;;;;;;;;;;;;19.35;50.51;101567.00;2068992;28;2326;-69
2024/02/20 04:32:20;;;;;;;;;;;;;;;19.35;50.47;101559.13;2069435;28;2069;-70
2024/02/20 04:33:21;;;;;;;;;;;;;;;19.35;50.50;101562.00;2070086;28;2285;-70
2024/02/20 04:34:26;;;;;;;;;;;;;;;19.36;50.54;101563.50;2070390;28;2264;-70
2024/02/20 04:35:28;;;;;;;;;;;;;;;19.39;50.56;101564.38;2071045;28;2338;-70
2024/02/20 04:36:29;;;;;;;;;;;;;;;19.39;50.56;101567.25;2070149;28;2342;-70
2024/02/20 04:37:31;;;;;;;;;;;;;;;19.40;50.60;101568.75;2067881;28;2288;-70
2024/02/20 04:38:32;;;;;;;;;;;;;;;19.40;50.52;101560.13;2070577;28;2353;-70
2024/02/20 04:39:33;;;;;;;;;;;;;;;19.39;50.60;101561.50;2070934;28;2183;-70
2024/02/20 04:40:35;;;;;;;;;;;;;;;19.40;50.42;101568.75;2071665;28;2268;-70
2024/02/20 04:41:36;;;;;;;;;;;;;;;19.41;50.62;101564.50;2076697;28;2654;-70
2024/02/20 04:42:41;;;;;;;;;;;;;;;19.40;50.63;101575.25;2077661;28;2455;-69
2024/02/20 04:43:43;;;;;;;;;;;;;;;19.41;50.59;101576.00;2068995;28;2423;-69
2024/02/20 04:44:45;;;;;;;;;;;;;;;19.40;50.67;101581.00;2070869;28;2255;-70
2024/02/20 04:45:47;;;;;;;;;;;;;;;19.40;50.66;101568.75;2069352;28;2361;-70
2024/02/20 04:46:48;;;;;;;;;;;;;;;19.40;50.67;101574.50;2068631;28;2236;-70
2024/02/20 04:47:50;;;;;;;;;;;;;;;19.40;50.68;101577.38;2067226;28;2231;-69
2024/02/20 04:48:51;;;;;;;;;;;;;;;19.39;50.67;101575.88;2070353;28;2252;-69
2024/02/20 04:49:52;;;;;;;;;;;;;;;19.39;50.72;101573.75;2068543;28;2180;-70
2024/02/20 04:50:54;;;;;;;;;;;;;;;19.39;50.74;101573.00;2070689;28;2279;-70
2024/02/20 04:51:55;;;;;;;;;;;;;;;19.39;50.58;101573.00;2069333;28;2211;-70
2024/02/20 04:52:57;;;;;;;;;;;;;;;19.39;50.72;101573.75;2070413;28;2526;-70
2024/02/20 04:53:58;;;;;;;;;;;;;;;19.40;50.58;101580.22;2068315;28;2604;-70
2024/02/20 04:55:02;;;;;;;;;;;;;;;19.39;50.63;101579.50;2071791;28;2276;-69
2024/02/20 04:56:04;;;;;;;;;;;;;;;19.39;50.81;101584.50;2069179;28;2288;-70
2024/02/20 04:57:05;;;;;;;;;;;;;;;19.37;50.75;101575.75;2069169;28;2212;-69
2024/02/20 04:58:06;;;;;;;;;;;;;;;19.39;50.64;101578.75;2070014;28;2215;-69
2024/02/20 04:59:08;;;;;;;;;;;;;;;19.39;50.65;101578.75;2071398;28;2216;-70
2024/02/20 05:00:10;;;;;;;;;;;;;;;19.40;50.75;101583.09;2067261;28;6059;-70
2024/02/20 05:01:15;;;;;;;;;;;;;;;19.40;50.74;101581.00;2069573;28;2357;-70
2024/02/20 05:02:16;;;;;;;;;;;;;;;19.40;50.70;101585.97;2071015;28;2290;-70
2024/02/20 05:03:18;;;;;;;;;;;;;;;19.41;50.73;101576.00;2071062;28;2248;-70
2024/02/20 05:04:20;;;;;;;;;;;;;;;19.41;50.73;101591.13;2068893;28;2612;-70
2024/02/20 05:05:21;;;;;;;;;;;;;;;19.41;50.62;101581.75;2070005;28;2330;-70
2024/02/20 05:06:23;;;;;;;;;;;;;;;19.42;50.65;101600.47;2072019;28;1955;-70
2024/02/20 05:07:24;;;;;;;;;;;;;;;19.41;50.62;101588.25;2067971;28;1923;-70
2024/02/20 05:08:26;;;;;;;;;;;;;;;19.42;50.56;101589.75;2069491;28;2052;-70
2024/02/20 05:09:27;;;;;;;;;;;;;;;19.43;50.58;101588.38;2068768;28;2181;-70
2024/02/20 05:10:29;;;;;;;;;;;;;;;19.44;50.44;101580.50;2068751;28;2402;-69
2024/02/20 05:11:30;;;;;;;;;;;;;;;19.41;50.60;101582.50;2070056;28;2364;-70
2024/02/20 05:12:31;;;;;;;;;;;;;;;19.46;50.71;101589.25;2067746;28;2246;-70
2024/02/20 05:13:33;;;;;;;;;;;;;;;19.51;50.59;101587.38;2069967;28;2199;-71
2024/02/20 05:14:34;;;;;;;;;;;;;;;19.53;50.48;101585.38;2069224;28;2068;-70
2024/02/20 05:15:36;;;;;;;;;;;;;;;19.53;50.57;101587.50;2068150;28;2519;-71
2024/02/20 05:16:37;;;;;;;;;;;;;;;19.52;50.54;101594.63;2069593;28;2070;-70
2024/02/20 05:17:41;;;;;;;;;;;;;;;19.49;50.75;101587.97;2068256;28;2389;-69
2024/02/20 05:18:42;;;;;;;;;;;;;;;19.51;50.66;101601.72;2067742;28;2098;-68
2024/02/20 05:19:44;;;;;;;;;;;;;;;19.51;50.77;101596.72;2067604;28;2214;-66
2024/02/20 05:20:45;;;;;;;;;;;;;;;19.46;50.86;101594.97;2068969;28;2137;-68
2024/02/20 05:21:47;;;;;;;;;;;;;;;19.50;50.77;101595.25;2067358;28;2068;-72